YEUA weather

Euroa Aerodrome
Euroa, Victoria, Australia

Public forecast

Using degrees Celsius for public forecast. Weather courtesy of forecast.io.

METAR (pilot weather report)

Closest report is Wangaratta Airport, 43.1 nm (79.8 km) ENE. Retrieved 2019/03/26 16:00 UTC (25 minutes ago):

YWGT 261600Z AUTO 21004KT 9999 // NCD 06/04 Q1022

TAF (pilot weather forecast)

Forecast is more than 12 hours old.

Closest forecast is Wangaratta Airport, 43.1 nm (79.8 km) ENE. Retrieved 2019/03/26 02:03 UTC (14 hours ago):

TAF YWGT 260016Z 2602/2614 24012KT 9999 SCT045 FM260700 20007KT CAVOK FM261100 VRB05KT CAVOK